Coral Harbour Airport
CYZS : now visible

Airfield :











YOU CAN JOIN US ON...

 
LOGIN :

Register | Disclaimer

   EN    FR    IT 

 









Legend :    VFR   Marginal VFR   IFR   Intensive IFR   Very Intensive IFR
Visi :
Ceiling :
>= 8 km
>= 3000ft
5 to 8 km
1000 to 3000 ft
1500m to 5 km
500 to 1000 ft
800 to 1500m
200 to 500 ft
< 800m
< 200 ft
Symbols :   Thunderstorms  Fog  Heavy snow  Heavy precipitations  Wind > 20 kt






- Airport Elevation : 210 ft
- IATA code : YZS


CYZS - Coral Harbour

CURRENT METAR :
  • 262200Z 29012KT 15SM BKN011 M05/M07 A2998 RMK SC7 SLP161

EXPIRED METARs :
  • 262100Z 29012KT 15SM SCT013 BKN120 M05/M08 A2997 RMK SC3AC4 SLP158
  • 262028Z 28012KT 15SM BKN013 BKN210 M05/M08 A2996 RMK SC6CI1 SLP156
  • 262000Z 28012KT 15SM BKN016 BKN210 M05/M08 A2996 RMK SC5CI1 SLP156

TAF TAF CYZS
Valid from the 26 at 19:00 until the 27 at 07:00 UTC


261839Z 2619/2707 30010KT P6SM BKN020
TEMPO 2619/2701 SCT020
FM270100 32010KT P6SM SCT020 RMK NXT FCST BY 270100Z
CZEG FIR / North America



MET'MAP, your aeronautical weather chart ! - Copyright ORBIFLY December 2007 - Disclaimer

ORBIFLY MET'MAP TEAM :

Programming & Development : Alexandra Zaïnal
Concept & original design : Baudouin d'Aumeries
Assistance for programming : Marc-Olivier Méhu
Technical & hardware support : Manuel Goepfert

Contact : metmap@orbifly.com




SOURCES & CREDITS :

   NOAA       Earth
Advisory